San Diego, California
Traffic Map
Current Weather Conditions
San Diego, California
Few Clouds
Few Clouds
60°
Feels Like: 60°
Wind Chill: 60° Ceiling: Unl
Heat Index: 60° Visibility: 10mi
Dew Point: 35° Wind: 3mph
Humidity: 39% Direction: 330° (NNW)
Pressure: 30.1in Gusts: 0mph
Raw Report DataKSAN 110851Z 33003KT 10SM FEW250 16/02 A3010 RMK AO2 SLP193 T01560017 58002
Traffic Incident Summary
Active as of:
Severity:
Category:
InformationThere was an issue retrieving the traffic information for this location. Please try a different location or try again shortly.
Advertisements
Track Severe Weather on mobile